createdAt,value
2022-12-22T00:01:31.921Z,12.37
2022-12-22T00:03:52.773Z,13.13
2022-12-22T00:06:13.397Z,12.80
2022-12-22T00:08:34.087Z,12.87
2022-12-22T00:10:54.963Z,13.13
2022-12-22T00:13:15.835Z,13.70
2022-12-22T00:15:36.739Z,12.57
2022-12-22T00:17:57.360Z,13.27
2022-12-22T00:20:18.777Z,12.30
2022-12-22T00:22:43.889Z,12.87
2022-12-22T00:25:04.641Z,14.30
2022-12-22T00:27:51.107Z,11.97
2022-12-22T00:30:11.762Z,11.53
2022-12-22T00:32:32.645Z,12.20
2022-12-22T00:35:00.616Z,12.20
2022-12-22T00:37:21.591Z,11.43
2022-12-22T00:39:43.627Z,13.23
2022-12-22T00:42:04.353Z,11.17
2022-12-22T00:44:24.675Z,11.70
2022-12-22T00:46:45.633Z,11.30
2022-12-22T00:49:06.726Z,10.90
2022-12-22T00:51:27.813Z,10.23
2022-12-22T00:53:48.425Z,10.47
2022-12-22T00:56:09.100Z,9.90
2022-12-22T00:58:35.359Z,10.97
2022-12-22T01:00:55.971Z,9.93
2022-12-22T01:03:16.733Z,10.43
2022-12-22T01:05:37.309Z,12.07
2022-12-22T01:07:57.772Z,10.93
2022-12-22T01:10:19.335Z,12.40
2022-12-22T01:12:42.409Z,12.70
2022-12-22T01:15:03.272Z,12.13
2022-12-22T01:17:24.033Z,13.90
2022-12-22T01:19:44.920Z,12.80
2022-12-22T01:22:05.890Z,12.87
2022-12-22T01:24:33.579Z,12.20
2022-12-22T01:26:54.002Z,11.93
2022-12-22T01:29:14.235Z,13.53
2022-12-22T01:31:36.673Z,13.80
2022-12-22T01:33:57.237Z,13.90
2022-12-22T01:36:18.323Z,13.63
2022-12-22T01:38:39.209Z,14.17
2022-12-22T01:40:59.493Z,14.90
2022-12-22T01:43:20.332Z,14.77
2022-12-22T01:45:43.379Z,15.70
2022-12-22T01:48:03.627Z,16.17
2022-12-22T01:50:24.479Z,16.70
2022-12-22T01:52:50.341Z,16.77
2022-12-22T01:55:11.339Z,16.87
2022-12-22T01:57:31.704Z,15.23
2022-12-22T01:59:52.685Z,15.57
2022-12-22T02:02:13.482Z,15.57
2022-12-22T02:04:36.672Z,15.60
2022-12-22T02:07:00.430Z,14.57
2022-12-22T02:09:27.172Z,17.10
2022-12-22T02:12:29.368Z,15.37
2022-12-22T02:15:05.464Z,14.67
2022-12-22T02:17:32.136Z,16.03
2022-12-22T02:20:30.347Z,17.20
2022-12-22T02:22:55.701Z,16.23
2022-12-22T02:25:24.080Z,16.43
2022-12-22T02:27:45.726Z,16.67
2022-12-22T02:30:14.589Z,15.57
2022-12-22T02:32:35.039Z,16.67
2022-12-22T02:34:55.643Z,16.83
2022-12-22T02:37:33.723Z,18.00
2022-12-22T02:40:21.831Z,18.00
2022-12-22T02:43:33.268Z,17.90
2022-12-22T02:46:20.024Z,18.00
2022-12-22T02:49:14.191Z,16.83
2022-12-22T02:51:37.203Z,15.90
2022-12-22T02:53:58.285Z,17.43
2022-12-22T02:56:23.342Z,16.93
2022-12-22T02:58:44.273Z,16.97
2022-12-22T03:01:05.280Z,17.67
2022-12-22T03:03:26.280Z,16.70
2022-12-22T03:05:47.173Z,17.30
2022-12-22T03:08:08.663Z,15.83
2022-12-22T03:10:29.773Z,15.33
2022-12-22T03:12:50.578Z,15.33
2022-12-22T03:15:11.068Z,16.57
2022-12-22T03:17:32.079Z,16.23
2022-12-22T03:19:52.509Z,16.00
2022-12-22T03:22:12.834Z,14.57
2022-12-22T03:24:33.578Z,14.60
2022-12-22T03:26:36.077Z,15.23
2022-12-22T03:28:38.030Z,14.60
2022-12-22T03:30:40.003Z,15.50
2022-12-22T03:32:41.971Z,14.27
2022-12-22T03:34:43.942Z,13.93
2022-12-22T03:36:45.887Z,15.30
2022-12-22T03:38:47.911Z,14.80
2022-12-22T03:40:49.925Z,15.07
2022-12-22T03:43:10.311Z,13.93
2022-12-22T03:45:30.652Z,13.97
2022-12-22T03:47:32.731Z,14.30
2022-12-22T03:49:34.715Z,15.10
2022-12-22T03:51:43.945Z,14.50
2022-12-22T03:53:45.959Z,14.10
2022-12-22T03:55:47.887Z,13.70
2022-12-22T03:57:49.883Z,13.33
2022-12-22T03:59:51.841Z,14.43
2022-12-22T04:01:55.018Z,14.23
2022-12-22T04:03:57.160Z,14.83
2022-12-22T04:05:59.370Z,14.10
2022-12-22T04:08:01.328Z,14.57
2022-12-22T04:10:23.087Z,13.10
2022-12-22T04:12:43.778Z,13.37
2022-12-22T04:14:45.779Z,14.50
2022-12-22T04:16:48.117Z,14.57
2022-12-22T04:18:50.275Z,15.07
2022-12-22T04:20:52.257Z,13.87
2022-12-22T04:22:56.076Z,14.40
2022-12-22T04:24:58.109Z,13.87
2022-12-22T04:27:00.052Z,13.10
2022-12-22T04:29:02.145Z,14.07
2022-12-22T04:31:04.280Z,13.90
2022-12-22T04:33:06.242Z,13.80
2022-12-22T04:35:09.398Z,15.00
2022-12-22T04:37:17.149Z,13.73
2022-12-22T04:39:19.606Z,14.87
2022-12-22T04:41:21.625Z,14.33
2022-12-22T04:43:23.598Z,13.90
2022-12-22T04:45:25.598Z,13.10
2022-12-22T04:47:27.633Z,13.00
2022-12-22T04:49:29.635Z,15.00
2022-12-22T04:51:31.673Z,16.30
2022-12-22T04:53:33.725Z,14.53
2022-12-22T04:55:35.885Z,14.67
2022-12-22T04:57:40.777Z,15.60
2022-12-22T04:59:43.141Z,15.77
2022-12-22T05:01:45.249Z,15.30
2022-12-22T05:03:47.676Z,14.70
2022-12-22T05:05:49.667Z,13.50
2022-12-22T05:07:51.634Z,15.60
2022-12-22T05:09:53.675Z,16.07
2022-12-22T05:11:55.800Z,14.60
2022-12-22T05:14:02.077Z,13.93
2022-12-22T05:16:09.862Z,16.23
2022-12-22T05:18:13.271Z,14.83
2022-12-22T05:20:15.628Z,14.57
2022-12-22T05:22:17.651Z,14.27
2022-12-22T05:24:19.609Z,14.27
2022-12-22T05:26:21.622Z,14.60
2022-12-22T05:28:23.640Z,13.40
2022-12-22T05:30:25.683Z,13.30
2022-12-22T05:32:27.944Z,14.63
2022-12-22T05:34:29.954Z,13.57
2022-12-22T05:36:31.940Z,13.30
2022-12-22T05:38:33.950Z,13.73
2022-12-22T05:40:35.941Z,12.97
2022-12-22T05:42:37.981Z,12.80
2022-12-22T05:44:39.924Z,12.70
2022-12-22T05:46:42.031Z,11.87
2022-12-22T05:48:44.069Z,13.13
2022-12-22T05:50:46.274Z,13.37
2022-12-22T05:52:48.398Z,12.37
2022-12-22T05:54:50.474Z,13.27
2022-12-22T05:56:52.558Z,12.87
2022-12-22T05:58:54.532Z,14.20
2022-12-22T06:00:58.341Z,13.83
2022-12-22T06:03:00.534Z,12.50
2022-12-22T06:05:02.743Z,12.97
2022-12-22T06:07:04.737Z,14.13
2022-12-22T06:09:06.718Z,12.90
2022-12-22T06:11:08.782Z,13.20
2022-12-22T06:13:10.906Z,12.73
2022-12-22T06:15:14.696Z,12.93
2022-12-22T06:17:16.783Z,11.83
2022-12-22T06:19:18.892Z,11.27
2022-12-22T06:21:20.911Z,12.37
2022-12-22T06:23:23.287Z,13.43
2022-12-22T06:25:25.222Z,12.93
2022-12-22T06:27:27.224Z,13.47
2022-12-22T06:29:29.186Z,12.63
2022-12-22T06:31:31.257Z,12.63
2022-12-22T06:33:34.492Z,11.97
2022-12-22T06:35:37.068Z,11.80
2022-12-22T06:37:39.073Z,12.60
2022-12-22T06:39:41.085Z,12.40
2022-12-22T06:42:01.562Z,10.90
2022-12-22T06:44:03.645Z,11.20
2022-12-22T06:46:05.633Z,10.10
2022-12-22T06:48:08.906Z,10.60
2022-12-22T06:50:11.306Z,9.47
2022-12-22T06:52:13.257Z,9.40
2022-12-22T06:54:16.734Z,9.93
2022-12-22T06:56:21.559Z,9.40
2022-12-22T06:58:23.578Z,10.13
2022-12-22T07:00:25.795Z,8.90
2022-12-22T07:02:28.027Z,9.50
2022-12-22T07:04:30.909Z,8.10
2022-12-22T07:06:32.928Z,8.87
2022-12-22T07:08:34.909Z,8.17
2022-12-22T07:10:55.970Z,7.60
2022-12-22T07:13:17.886Z,6.57
2022-12-22T07:15:19.981Z,7.03
2022-12-22T07:17:21.957Z,7.30
2022-12-22T07:19:23.944Z,7.00
2022-12-22T07:21:26.094Z,7.30
2022-12-22T07:23:28.486Z,7.00
2022-12-22T07:25:30.445Z,8.30
2022-12-22T07:27:32.443Z,7.20
2022-12-22T07:29:36.203Z,8.07
2022-12-22T07:31:38.206Z,7.17
2022-12-22T07:33:40.193Z,8.63
2022-12-22T07:35:42.205Z,8.27
2022-12-22T07:37:44.267Z,7.47
2022-12-22T07:39:46.253Z,8.00
2022-12-22T07:42:06.636Z,7.33
2022-12-22T07:44:08.682Z,22.40
2022-12-22T07:46:10.669Z,11.27
2022-12-22T07:48:31.413Z,7.40
2022-12-22T07:50:33.495Z,7.60
2022-12-22T07:52:35.491Z,6.83
2022-12-22T07:54:41.722Z,6.67
2022-12-22T07:56:46.106Z,7.20
2022-12-22T07:58:48.102Z,7.13
2022-12-22T08:00:50.121Z,7.20
2022-12-22T08:02:57.023Z,7.17
2022-12-22T08:04:59.304Z,7.50
2022-12-22T08:07:01.326Z,6.63
2022-12-22T08:09:05.126Z,6.80
2022-12-22T08:11:07.139Z,6.67
2022-12-22T08:13:09.163Z,6.77
2022-12-22T08:15:11.653Z,7.10
2022-12-22T08:17:13.631Z,6.40
2022-12-22T08:19:15.618Z,6.57
2022-12-22T08:21:17.804Z,6.17
2022-12-22T08:23:19.789Z,5.97
2022-12-22T08:25:21.764Z,6.40
2022-12-22T08:27:29.626Z,6.70
2022-12-22T08:29:35.371Z,5.57
2022-12-22T08:31:38.056Z,5.40
2022-12-22T08:33:40.223Z,5.13
2022-12-22T08:35:42.681Z,5.33
2022-12-22T08:37:46.010Z,4.77
2022-12-22T08:39:53.398Z,5.80
2022-12-22T08:41:55.380Z,5.40
2022-12-22T08:43:57.411Z,5.70
2022-12-22T08:45:59.334Z,5.07
2022-12-22T08:48:01.443Z,5.10
2022-12-22T08:50:04.413Z,4.97
2022-12-22T08:52:06.429Z,5.50
2022-12-22T08:54:08.451Z,4.93
2022-12-22T08:56:10.458Z,5.10
2022-12-22T08:58:12.489Z,4.90
2022-12-22T09:00:15.143Z,5.43
2022-12-22T09:02:17.444Z,4.90
2022-12-22T09:04:21.601Z,4.80
2022-12-22T09:06:27.642Z,5.30
2022-12-22T09:08:30.400Z,5.07
2022-12-22T09:10:32.397Z,4.80
2022-12-22T09:12:34.996Z,5.27
2022-12-22T09:14:37.076Z,4.83
2022-12-22T09:16:40.010Z,5.03
2022-12-22T09:18:42.118Z,4.70
2022-12-22T09:20:44.093Z,4.97
2022-12-22T09:22:46.078Z,5.03
2022-12-22T09:24:48.260Z,6.00
2022-12-22T09:26:50.267Z,6.40
2022-12-22T09:28:52.769Z,7.33
2022-12-22T09:30:54.771Z,5.37
2022-12-22T09:32:56.723Z,5.87
2022-12-22T09:34:58.680Z,5.23
2022-12-22T09:37:00.646Z,4.53
2022-12-22T09:39:06.600Z,4.67
2022-12-22T09:41:23.472Z,4.77
2022-12-22T09:43:29.503Z,5.17
2022-12-22T09:45:33.839Z,4.90
2022-12-22T09:47:38.763Z,5.10
2022-12-22T09:49:40.782Z,5.37
2022-12-22T09:51:45.344Z,5.50
2022-12-22T09:53:50.201Z,5.03
2022-12-22T09:55:52.225Z,5.10
2022-12-22T09:57:54.539Z,5.30
2022-12-22T09:59:58.726Z,4.90
2022-12-22T10:02:10.668Z,4.70
2022-12-22T10:04:34.714Z,4.87
2022-12-22T10:07:01.107Z,4.67
2022-12-22T10:09:46.189Z,5.40
2022-12-22T10:11:38.663Z,4.10
2022-12-22T10:13:40.784Z,4.87
2022-12-22T10:15:43.201Z,4.50
2022-12-22T10:17:45.291Z,5.03
2022-12-22T10:19:49.224Z,4.97
2022-12-22T10:21:51.295Z,5.07
2022-12-22T10:23:53.672Z,5.17
2022-12-22T10:28:26.697Z,4.97
2022-12-22T10:30:32.262Z,5.60
2022-12-22T10:32:34.383Z,5.87
2022-12-22T10:34:36.463Z,5.97
2022-12-22T10:36:38.939Z,6.30
2022-12-22T10:38:58.440Z,6.10
2022-12-22T10:41:19.003Z,5.73
2022-12-22T10:43:27.775Z,6.10
2022-12-22T10:45:29.826Z,5.57
2022-12-22T10:47:31.801Z,5.80
2022-12-22T10:51:41.401Z,6.90
2022-12-22T10:53:45.950Z,7.23
2022-12-22T10:56:05.581Z,7.17
2022-12-22T10:58:10.730Z,6.73
2022-12-22T11:00:26.773Z,7.17
2022-12-22T11:02:30.344Z,6.47
2022-12-22T11:04:32.425Z,8.20
2022-12-22T11:06:34.463Z,8.20
2022-12-22T11:08:36.704Z,8.73
2022-12-22T11:10:58.665Z,6.50
2022-12-22T11:13:06.694Z,5.97
2022-12-22T11:15:26.888Z,6.30
2022-12-22T11:17:40.919Z,5.23
2022-12-22T11:20:15.054Z,5.40
2022-12-22T11:22:33.949Z,5.63
2022-12-22T11:24:38.749Z,5.63
2022-12-22T11:27:00.129Z,4.93
2022-12-22T11:29:23.362Z,5.10
2022-12-22T11:31:34.565Z,5.50
2022-12-22T11:33:54.045Z,4.90
2022-12-22T11:36:00.921Z,4.80
2022-12-22T11:38:02.883Z,4.60
2022-12-22T11:40:28.972Z,4.90
2022-12-22T11:42:53.908Z,4.60
2022-12-22T11:45:25.203Z,4.37
2022-12-22T11:47:27.136Z,4.47
2022-12-22T11:49:49.093Z,4.40
2022-12-22T11:51:59.886Z,4.20
2022-12-22T11:54:10.571Z,5.27
2022-12-22T11:56:29.679Z,4.50
2022-12-22T11:58:58.565Z,4.53
2022-12-22T12:01:25.650Z,4.60
2022-12-22T12:03:33.022Z,5.03
2022-12-22T12:05:40.939Z,3.90
2022-12-22T12:07:49.242Z,5.30
2022-12-22T12:10:19.445Z,5.00
2022-12-22T12:12:49.337Z,5.10
2022-12-22T12:15:09.416Z,5.20
2022-12-22T12:17:29.930Z,5.00
2022-12-22T12:19:46.216Z,4.30
2022-12-22T12:21:52.170Z,4.80
2022-12-22T12:24:01.149Z,4.77
2022-12-22T12:26:18.889Z,4.70
2022-12-22T12:28:51.795Z,4.23
2022-12-22T12:30:59.499Z,3.70
2022-12-22T12:33:02.819Z,4.20
2022-12-22T12:35:30.505Z,4.60
2022-12-22T12:37:39.160Z,5.43
2022-12-22T12:39:55.323Z,4.97
2022-12-22T12:42:18.796Z,3.93
2022-12-22T12:44:24.603Z,4.00
2022-12-22T12:46:51.640Z,4.70
2022-12-22T12:48:56.310Z,4.43
2022-12-22T12:50:58.537Z,4.00
2022-12-22T12:53:06.452Z,4.03
2022-12-22T12:55:23.256Z,3.10
2022-12-22T12:57:48.497Z,2.90
2022-12-22T12:59:52.614Z,2.60
2022-12-22T13:01:56.334Z,3.07
2022-12-22T13:04:04.135Z,3.33
2022-12-22T13:06:32.118Z,3.67
2022-12-22T13:09:39.764Z,2.97
2022-12-22T13:12:11.352Z,3.00
2022-12-22T13:13:58.584Z,2.90
2022-12-22T13:16:00.660Z,3.30
2022-12-22T13:18:04.431Z,3.70
2022-12-22T13:20:13.377Z,3.00
2022-12-22T13:22:15.717Z,2.60
2022-12-22T13:24:25.338Z,2.97
2022-12-22T13:26:39.650Z,3.00
2022-12-22T13:28:44.577Z,3.27
2022-12-22T13:30:52.356Z,3.70
2022-12-22T13:32:55.972Z,3.13
2022-12-22T13:37:28.609Z,3.07
2022-12-22T13:39:30.716Z,3.50
2022-12-22T13:41:33.927Z,3.40
2022-12-22T13:43:36.281Z,3.43
2022-12-22T13:45:39.296Z,3.10
2022-12-22T13:47:43.009Z,3.87
2022-12-22T13:50:07.932Z,3.93
2022-12-22T13:52:12.867Z,4.30
2022-12-22T13:54:14.974Z,4.60
2022-12-22T13:56:20.625Z,4.57
2022-12-22T13:58:30.758Z,4.70
2022-12-22T14:00:33.627Z,4.40
2022-12-22T14:02:35.784Z,4.90
2022-12-22T14:04:40.297Z,4.73
2022-12-22T14:06:42.393Z,4.67
2022-12-22T14:08:44.356Z,5.10
2022-12-22T14:10:46.609Z,5.60
2022-12-22T14:12:48.615Z,5.10
2022-12-22T14:14:52.421Z,6.03
2022-12-22T14:16:57.013Z,5.50
2022-12-22T14:18:59.666Z,6.00
2022-12-22T14:21:01.835Z,5.83
2022-12-22T14:23:18.011Z,6.93
2022-12-22T14:25:23.329Z,8.30
2022-12-22T14:27:40.732Z,8.43
2022-12-22T14:29:43.076Z,7.90
2022-12-22T14:32:01.858Z,9.50
2022-12-22T14:34:05.551Z,8.97
2022-12-22T14:36:23.882Z,8.93
2022-12-22T14:38:26.747Z,9.17
2022-12-22T14:40:35.688Z,9.80
2022-12-22T14:42:43.189Z,9.70
2022-12-22T14:44:46.213Z,10.40
2022-12-22T14:47:16.146Z,9.20
2022-12-22T14:49:19.690Z,9.40
2022-12-22T14:51:21.900Z,11.07
2022-12-22T14:53:39.116Z,10.10
2022-12-22T14:55:42.506Z,12.23
2022-12-22T14:57:44.494Z,12.70
2022-12-22T15:00:08.707Z,11.70
2022-12-22T15:02:33.484Z,10.53
2022-12-22T15:04:38.772Z,11.70
2022-12-22T15:06:42.097Z,12.47
2022-12-22T15:08:44.097Z,9.60
2022-12-22T15:10:46.189Z,9.90
2022-12-22T15:12:49.253Z,9.67
2022-12-22T15:14:51.342Z,11.60
2022-12-22T15:16:58.336Z,9.90
2022-12-22T15:19:00.464Z,11.17
2022-12-22T15:21:02.892Z,10.80
2022-12-22T15:23:10.512Z,9.77
2022-12-22T15:25:20.636Z,10.90
2022-12-22T15:27:22.589Z,10.90
2022-12-22T15:29:24.589Z,10.40
2022-12-22T15:31:26.725Z,10.27
2022-12-22T15:33:30.321Z,10.47
2022-12-22T15:35:34.765Z,10.70
2022-12-22T15:37:36.761Z,12.10
2022-12-22T15:39:38.841Z,12.40
2022-12-22T15:41:41.618Z,12.10
2022-12-22T15:43:59.637Z,12.60
2022-12-22T15:46:02.805Z,12.97
2022-12-22T15:48:06.843Z,13.50
2022-12-22T15:50:14.390Z,13.30
2022-12-22T15:52:17.241Z,13.67
2022-12-22T15:54:19.878Z,14.50
2022-12-22T15:56:24.460Z,13.90
2022-12-22T15:58:29.052Z,14.90
2022-12-22T16:00:31.298Z,15.00
2022-12-22T16:02:33.481Z,14.83
2022-12-22T16:04:35.739Z,15.00
2022-12-22T16:06:38.062Z,15.73
2022-12-22T16:08:42.086Z,15.53
2022-12-22T16:10:44.287Z,15.80
2022-12-22T16:12:54.115Z,15.63
2022-12-22T16:14:57.095Z,16.53
2022-12-22T16:16:59.053Z,16.17
2022-12-22T16:19:01.073Z,17.40
2022-12-22T16:21:08.415Z,18.20
2022-12-22T16:23:16.300Z,16.40
2022-12-22T16:25:24.128Z,17.03
2022-12-22T16:27:26.166Z,16.87
2022-12-22T16:29:28.141Z,17.50
2022-12-22T16:31:30.131Z,17.10
2022-12-22T16:33:32.242Z,18.70
2022-12-22T16:35:34.247Z,18.23
2022-12-22T16:37:36.270Z,19.10
2022-12-22T16:39:38.329Z,18.50
2022-12-22T16:41:41.098Z,18.67
2022-12-22T16:46:05.673Z,19.53
2022-12-22T16:48:13.085Z,20.00
2022-12-22T16:50:23.039Z,17.93
2022-12-22T16:52:30.002Z,21.07
2022-12-22T16:54:32.010Z,20.20
2022-12-22T16:56:34.970Z,19.47
2022-12-22T16:58:36.946Z,22.20
2022-12-22T17:00:39.916Z,19.63
2022-12-22T17:02:42.890Z,19.57
2022-12-22T17:04:45.249Z,20.07
2022-12-22T17:06:48.940Z,18.87
2022-12-22T17:08:50.929Z,18.93
2022-12-22T17:10:54.711Z,18.87
2022-12-22T17:12:57.707Z,18.97
2022-12-22T17:15:00.955Z,17.90
2022-12-22T17:17:03.892Z,19.17
2022-12-22T17:19:06.356Z,20.00
2022-12-22T17:21:08.882Z,18.13
2022-12-22T17:23:31.725Z,18.50
2022-12-22T17:25:34.070Z,19.90
2022-12-22T17:27:36.162Z,17.00
2022-12-22T17:29:38.571Z,17.20
2022-12-22T17:31:40.608Z,17.07
2022-12-22T17:33:42.869Z,16.97
2022-12-22T17:35:46.352Z,17.40
2022-12-22T17:37:49.188Z,17.20
2022-12-22T17:39:56.096Z,17.23
2022-12-22T17:41:58.383Z,15.13
2022-12-22T17:44:00.498Z,17.00
2022-12-22T17:46:02.534Z,19.07
2022-12-22T17:48:04.931Z,19.40
2022-12-22T17:50:08.374Z,18.03
2022-12-22T17:52:18.701Z,15.97
2022-12-22T17:54:23.795Z,16.03
2022-12-22T17:56:27.603Z,15.27
2022-12-22T17:58:29.597Z,15.50
2022-12-22T18:00:32.283Z,16.47
2022-12-22T18:02:34.447Z,15.73
2022-12-22T18:04:36.556Z,18.00
2022-12-22T18:06:39.720Z,19.30
2022-12-22T18:08:41.840Z,18.67
2022-12-22T18:10:44.431Z,17.97
2022-12-22T18:12:46.467Z,19.43
2022-12-22T18:14:49.362Z,19.27
2022-12-22T18:16:51.404Z,20.37
2022-12-22T18:18:53.476Z,18.23
2022-12-22T18:21:05.899Z,18.43
2022-12-22T18:23:16.984Z,15.80
2022-12-22T18:25:25.121Z,16.63
2022-12-22T18:27:27.099Z,16.00
2022-12-22T18:29:30.276Z,15.40
2022-12-22T18:31:32.984Z,15.00
2022-12-22T18:33:35.050Z,21.37
2022-12-22T18:35:37.573Z,19.47
2022-12-22T18:37:40.359Z,18.83
2022-12-22T18:39:43.996Z,16.37
2022-12-22T18:41:46.394Z,17.10
2022-12-22T18:43:49.026Z,18.90
2022-12-22T18:45:51.016Z,18.33
2022-12-22T18:47:53.787Z,19.23
2022-12-22T18:49:55.849Z,17.83
2022-12-22T18:51:58.057Z,17.50
2022-12-22T18:54:00.032Z,19.10
2022-12-22T18:56:02.016Z,19.47
2022-12-22T18:58:04.013Z,35.00
2022-12-22T19:00:13.388Z,24.27
2022-12-22T19:02:22.396Z,25.00
2022-12-22T19:04:24.614Z,25.60
2022-12-22T19:06:29.966Z,22.93
2022-12-22T19:08:31.961Z,18.87
2022-12-22T19:10:37.734Z,19.20
2022-12-22T19:12:39.714Z,16.47
2022-12-22T19:14:47.657Z,17.97
2022-12-22T19:16:49.653Z,18.37
2022-12-22T19:18:51.726Z,17.27
2022-12-22T19:20:54.105Z,16.27
2022-12-22T19:22:56.154Z,17.40
2022-12-22T19:24:59.032Z,17.60
2022-12-22T19:27:01.756Z,23.60
2022-12-22T19:29:04.366Z,24.60
2022-12-22T19:31:07.675Z,17.93
2022-12-22T19:33:18.053Z,16.97
2022-12-22T19:35:21.547Z,16.23
2022-12-22T19:37:23.545Z,12.77
2022-12-22T19:39:25.476Z,14.87
2022-12-22T19:41:39.964Z,16.37
2022-12-22T19:43:41.927Z,15.37
2022-12-22T19:45:43.955Z,15.40
2022-12-22T19:47:46.420Z,12.90
2022-12-22T19:49:48.591Z,14.90
2022-12-22T19:51:50.698Z,12.77
2022-12-22T19:53:52.775Z,13.27
2022-12-22T19:55:56.474Z,14.43
2022-12-22T19:57:58.469Z,15.10
2022-12-22T20:00:00.611Z,14.43
2022-12-22T20:02:06.481Z,13.50
2022-12-22T20:04:12.356Z,20.53
2022-12-22T20:06:14.931Z,14.17
2022-12-22T20:08:17.215Z,12.63
2022-12-22T20:10:20.076Z,13.00
2022-12-22T20:12:29.997Z,12.20
2022-12-22T20:14:32.008Z,13.47
2022-12-22T20:16:34.234Z,12.70
2022-12-22T20:18:36.260Z,12.53
2022-12-22T20:20:38.760Z,12.47
2022-12-22T20:22:43.544Z,13.43
2022-12-22T20:24:46.589Z,12.37
2022-12-22T20:26:53.723Z,13.10
2022-12-22T20:28:56.401Z,12.87
2022-12-22T20:30:58.562Z,11.70
2022-12-22T20:33:01.160Z,11.43
2022-12-22T20:35:04.105Z,9.53
2022-12-22T20:37:06.122Z,10.77
2022-12-22T20:39:12.420Z,11.07
2022-12-22T20:41:14.496Z,11.37
2022-12-22T20:43:20.534Z,12.07
2022-12-22T20:45:22.797Z,11.90
2022-12-22T20:47:24.853Z,11.63
2022-12-22T20:49:26.840Z,13.00
2022-12-22T20:51:32.022Z,13.50
2022-12-22T20:53:34.347Z,12.57
2022-12-22T20:55:36.862Z,12.60
2022-12-22T20:57:38.887Z,12.27
2022-12-22T20:59:40.951Z,11.40
2022-12-22T21:01:43.371Z,12.50
2022-12-22T21:03:45.812Z,11.23
2022-12-22T21:05:47.988Z,11.63
2022-12-22T21:07:50.095Z,11.20
2022-12-22T21:09:52.088Z,12.00
2022-12-22T21:11:54.125Z,12.77
2022-12-22T21:13:57.344Z,12.63
2022-12-22T21:15:59.442Z,12.20
2022-12-22T21:18:01.425Z,11.90
2022-12-22T21:20:03.699Z,10.17
2022-12-22T21:22:05.715Z,12.10
2022-12-22T21:24:07.768Z,11.43
2022-12-22T21:26:38.042Z,11.30
2022-12-22T21:28:40.102Z,10.80
2022-12-22T21:30:42.179Z,11.43
2022-12-22T21:32:44.601Z,11.50
2022-12-22T21:34:46.631Z,11.77
2022-12-22T21:36:50.159Z,12.80
2022-12-22T21:38:54.624Z,12.40
2022-12-22T21:40:56.683Z,11.40
2022-12-22T21:42:58.987Z,11.17
2022-12-22T21:45:00.919Z,10.47
2022-12-22T21:47:03.576Z,10.67
2022-12-22T21:49:05.663Z,9.83
2022-12-22T21:51:11.497Z,9.90
2022-12-22T21:53:19.763Z,11.43
2022-12-22T21:55:36.054Z,10.40
2022-12-22T21:57:38.090Z,11.83
2022-12-22T21:59:40.269Z,12.10
2022-12-22T22:01:43.185Z,11.00
2022-12-22T22:03:45.283Z,11.53
2022-12-22T22:05:48.098Z,10.63
2022-12-22T22:07:50.430Z,11.97
2022-12-22T22:09:52.538Z,11.40
2022-12-22T22:12:12.819Z,11.73
2022-12-22T22:14:14.946Z,11.73
2022-12-22T22:16:17.475Z,11.47
2022-12-22T22:18:20.231Z,12.27
2022-12-22T22:20:24.846Z,11.37
2022-12-22T22:22:26.983Z,10.13
2022-12-22T22:24:30.891Z,10.47
2022-12-22T22:26:33.009Z,11.30
2022-12-22T22:28:35.301Z,10.40
2022-12-22T22:30:37.299Z,10.60
2022-12-22T22:32:39.359Z,11.37
2022-12-22T22:34:41.515Z,12.40
2022-12-22T22:36:43.664Z,11.20
2022-12-22T22:38:45.663Z,10.50
2022-12-22T22:40:48.205Z,10.37
2022-12-22T22:42:50.251Z,10.33
2022-12-22T22:44:52.282Z,11.37
2022-12-22T22:46:54.362Z,11.23
2022-12-22T22:48:58.624Z,13.27
2022-12-22T22:51:00.759Z,11.80
2022-12-22T22:53:02.843Z,13.37
2022-12-22T22:55:05.182Z,12.13
2022-12-22T22:57:07.247Z,12.60
2022-12-22T22:59:12.058Z,13.93
2022-12-22T23:01:14.207Z,12.37
2022-12-22T23:03:16.760Z,12.50
2022-12-22T23:05:22.880Z,14.73
2022-12-22T23:07:25.290Z,13.77
2022-12-22T23:09:27.254Z,14.20
2022-12-22T23:11:29.250Z,14.20
2022-12-22T23:13:31.532Z,13.20
2022-12-22T23:15:33.501Z,14.37
2022-12-22T23:17:35.489Z,13.97
2022-12-22T23:19:38.549Z,14.20
2022-12-22T23:21:40.855Z,14.90
2022-12-22T23:23:42.898Z,16.00
2022-12-22T23:25:46.446Z,15.53
2022-12-22T23:27:48.633Z,16.10
2022-12-22T23:29:50.602Z,16.10
2022-12-22T23:31:52.863Z,15.43
2022-12-22T23:33:56.820Z,15.50
2022-12-22T23:35:59.070Z,15.23
2022-12-22T23:38:01.095Z,15.70
2022-12-22T23:40:33.301Z,15.83
2022-12-22T23:42:25.571Z,15.87
2022-12-22T23:44:27.691Z,14.87
2022-12-22T23:46:29.733Z,15.03
2022-12-22T23:48:32.030Z,14.90
2022-12-22T23:50:34.277Z,14.73
2022-12-22T23:52:36.283Z,15.10
2022-12-22T23:54:38.326Z,17.43
2022-12-22T23:56:40.334Z,17.50
2022-12-22T23:58:42.634Z,18.33
